sensor_id;sensor_type;location;lat;lon;timestamp;temperature;humidity
46458;DHT22;32155;54.076;12.092;2023-05-07T04:02:18;7.70;99.90
46458;DHT22;32155;54.076;12.092;2023-05-07T04:04:48;7.70;99.90
46458;DHT22;32155;54.076;12.092;2023-05-07T04:07:14;7.60;99.90
46458;DHT22;32155;54.076;12.092;2023-05-07T04:09:41;7.50;99.90
46458;DHT22;32155;54.076;12.092;2023-05-07T04:12:18;7.40;99.90
46458;DHT22;32155;54.076;12.092;2023-05-07T04:15:14;7.50;99.90
46458;DHT22;32155;54.076;12.092;2023-05-07T04:18:27;7.50;99.90
46458;DHT22;32155;54.076;12.092;2023-05-07T04:21:15;7.50;99.90
46458;DHT22;32155;54.076;12.092;2023-05-07T04:23:41;7.50;99.90
46458;DHT22;32155;54.076;12.092;2023-05-07T04:26:07;7.50;99.90
46458;DHT22;32155;54.076;12.092;2023-05-07T04:28:34;7.50;99.90
46458;DHT22;32155;54.076;12.092;2023-05-07T04:31:00;7.50;99.90
46458;DHT22;32155;54.076;12.092;2023-05-07T04:33:26;7.60;99.90
46458;DHT22;32155;54.076;12.092;2023-05-07T04:35:55;7.60;99.90
46458;DHT22;32155;54.076;12.092;2023-05-07T04:38:21;7.60;99.90
46458;DHT22;32155;54.076;12.092;2023-05-07T04:41:02;7.60;99.90
46458;DHT22;32155;54.076;12.092;2023-05-07T04:43:43;7.70;99.90
46458;DHT22;32155;54.076;12.092;2023-05-07T04:46:20;7.80;99.90
46458;DHT22;32155;54.076;12.092;2023-05-07T04:52:45;7.90;99.90
46458;DHT22;32155;54.076;12.092;2023-05-07T04:55:41;7.90;99.90
46458;DHT22;32155;54.076;12.092;2023-05-07T04:58:17;8.00;99.90
46458;DHT22;32155;54.076;12.092;2023-05-07T05:00:48;8.00;99.90
46458;DHT22;32155;54.076;12.092;2023-05-07T05:03:24;8.10;99.90
46458;DHT22;32155;54.076;12.092;2023-05-07T05:06:12;8.20;99.90
46458;DHT22;32155;54.076;12.092;2023-05-07T05:08:57;8.30;99.90
46458;DHT22;32155;54.076;12.092;2023-05-07T05:11:31;8.30;99.90
46458;DHT22;32155;54.076;12.092;2023-05-07T05:14:18;8.50;99.90
46458;DHT22;32155;54.076;12.092;2023-05-07T05:17:07;8.70;99.90
46458;DHT22;32155;54.076;12.092;2023-05-07T05:19:46;8.60;99.90
46458;DHT22;32155;54.076;12.092;2023-05-07T05:22:12;8.80;99.90
46458;DHT22;32155;54.076;12.092;2023-05-07T05:27:37;9.20;99.90
46458;DHT22;32155;54.076;12.092;2023-05-07T05:30:14;9.50;99.90
46458;DHT22;32155;54.076;12.092;2023-05-07T05:33:10;9.70;99.90
46458;DHT22;32155;54.076;12.092;2023-05-07T05:35:45;9.90;99.90
46458;DHT22;32155;54.076;12.092;2023-05-07T05:38:23;10.10;99.90
46458;DHT22;32155;54.076;12.092;2023-05-07T05:40:55;10.20;99.90
46458;DHT22;32155;54.076;12.092;2023-05-07T05:43:27;10.30;99.90
46458;DHT22;32155;54.076;12.092;2023-05-07T05:45:58;10.30;99.90
46458;DHT22;32155;54.076;12.092;2023-05-07T05:48:28;10.40;99.90
46458;DHT22;32155;54.076;12.092;2023-05-07T05:51:00;10.60;99.90
46458;DHT22;32155;54.076;12.092;2023-05-07T05:53:26;10.90;99.90
46458;DHT22;32155;54.076;12.092;2023-05-07T05:56:12;11.00;99.90
46458;DHT22;32155;54.076;12.092;2023-05-07T05:58:41;11.30;99.90
46458;DHT22;32155;54.076;12.092;2023-05-07T06:01:07;11.20;99.90
46458;DHT22;32155;54.076;12.092;2023-05-07T06:03:33;11.30;99.90
46458;DHT22;32155;54.076;12.092;2023-05-07T06:09:08;11.30;99.90
46458;DHT22;32155;54.076;12.092;2023-05-07T06:11:34;11.70;99.90
46458;DHT22;32155;54.076;12.092;2023-05-07T06:14:02;12.00;99.90
46458;DHT22;32155;54.076;12.092;2023-05-07T06:16:28;12.30;99.90
46458;DHT22;32155;54.076;12.092;2023-05-07T06:18:54;12.70;99.90
46458;DHT22;32155;54.076;12.092;2023-05-07T06:21:21;13.00;99.90
46458;DHT22;32155;54.076;12.092;2023-05-07T06:23:49;13.20;99.90
46458;DHT22;32155;54.076;12.092;2023-05-07T06:26:31;12.80;99.90
46458;DHT22;32155;54.076;12.092;2023-05-07T06:29:20;13.30;99.90
46458;DHT22;32155;54.076;12.092;2023-05-07T06:42:54;14.10;99.90
46458;DHT22;32155;54.076;12.092;2023-05-07T06:45:20;14.20;99.90
46458;DHT22;32155;54.076;12.092;2023-05-07T06:47:46;14.00;99.90
46458;DHT22;32155;54.076;12.092;2023-05-07T06:50:14;14.20;99.90
46458;DHT22;32155;54.076;12.092;2023-05-07T06:52:42;14.30;99.90
46458;DHT22;32155;54.076;12.092;2023-05-07T06:55:08;14.40;99.90
46458;DHT22;32155;54.076;12.092;2023-05-07T06:57:40;14.50;99.90
46458;DHT22;32155;54.076;12.092;2023-05-07T07:00:48;14.90;99.90
46458;DHT22;32155;54.076;12.092;2023-05-07T07:03:16;14.80;99.90
46458;DHT22;32155;54.076;12.092;2023-05-07T07:05:42;15.20;99.90
46458;DHT22;32155;54.076;12.092;2023-05-07T07:08:08;15.20;99.90
46458;DHT22;32155;54.076;12.092;2023-05-07T07:10:37;15.80;99.90
46458;DHT22;32155;54.076;12.092;2023-05-07T07:13:08;15.60;99.90
46458;DHT22;32155;54.076;12.092;2023-05-07T07:15:34;15.60;99.90
46458;DHT22;32155;54.076;12.092;2023-05-07T07:18:03;16.40;99.90
46458;DHT22;32155;54.076;12.092;2023-05-07T07:20:37;16.40;99.90
46458;DHT22;32155;54.076;12.092;2023-05-07T07:23:10;16.90;99.90
46458;DHT22;32155;54.076;12.092;2023-05-07T07:25:39;16.50;99.90
46458;DHT22;32155;54.076;12.092;2023-05-07T07:28:08;16.70;99.90
46458;DHT22;32155;54.076;12.092;2023-05-07T07:30:40;16.90;99.90
46458;DHT22;32155;54.076;12.092;2023-05-07T07:33:18;17.00;99.90
46458;DHT22;32155;54.076;12.092;2023-05-07T07:35:55;17.10;99.90
46458;DHT22;32155;54.076;12.092;2023-05-07T07:38:26;17.50;99.90
46458;DHT22;32155;54.076;12.092;2023-05-07T07:41:10;17.80;99.90
46458;DHT22;32155;54.076;12.092;2023-05-07T07:43:49;18.50;99.90
46458;DHT22;32155;54.076;12.092;2023-05-07T07:46:35;18.40;99.90
46458;DHT22;32155;54.076;12.092;2023-05-07T07:52:53;18.60;99.90
46458;DHT22;32155;54.076;12.092;2023-05-07T07:56:23;19.20;99.90
46458;DHT22;32155;54.076;12.092;2023-05-07T08:01:40;20.30;99.90
46458;DHT22;32155;54.076;12.092;2023-05-07T08:04:15;21.00;99.90
46458;DHT22;32155;54.076;12.092;2023-05-07T08:06:44;20.50;99.90
46458;DHT22;32155;54.076;12.092;2023-05-07T08:09:21;20.50;99.90
46458;DHT22;32155;54.076;12.092;2023-05-07T08:11:50;20.30;99.90
46458;DHT22;32155;54.076;12.092;2023-05-07T08:14:22;20.10;99.90
46458;DHT22;32155;54.076;12.092;2023-05-07T08:16:59;20.30;99.90
46458;DHT22;32155;54.076;12.092;2023-05-07T08:23:33;20.90;99.90
46458;DHT22;32155;54.076;12.092;2023-05-07T08:26:28;20.70;99.90
46458;DHT22;32155;54.076;12.092;2023-05-07T08:29:23;20.50;99.90
46458;DHT22;32155;54.076;12.092;2023-05-07T08:31:56;20.30;99.90
46458;DHT22;32155;54.076;12.092;2023-05-07T08:34:33;21.00;99.90
46458;DHT22;32155;54.076;12.092;2023-05-07T08:37:10;22.50;98.00
46458;DHT22;32155;54.076;12.092;2023-05-07T08:39:41;21.60;97.70
46458;DHT22;32155;54.076;12.092;2023-05-07T08:42:44;21.40;98.10
46458;DHT22;32155;54.076;12.092;2023-05-07T08:48:35;22.00;97.50
46458;DHT22;32155;54.076;12.092;2023-05-07T08:51:14;22.30;95.70
46458;DHT22;32155;54.076;12.092;2023-05-07T08:53:50;22.80;92.80
46458;DHT22;32155;54.076;12.092;2023-05-07T08:56:22;22.20;92.30
46458;DHT22;32155;54.076;12.092;2023-05-07T08:58:53;21.40;93.40
46458;DHT22;32155;54.076;12.092;2023-05-07T09:01:37;21.70;94.90
46458;DHT22;32155;54.076;12.092;2023-05-07T09:04:12;21.80;93.30
46458;DHT22;32155;54.076;12.092;2023-05-07T09:06:55;21.90;94.00
46458;DHT22;32155;54.076;12.092;2023-05-07T09:09:24;22.50;94.10
46458;DHT22;32155;54.076;12.092;2023-05-07T09:12:01;24.80;90.80
46458;DHT22;32155;54.076;12.092;2023-05-07T09:32:19;24.10;89.40
46458;DHT22;32155;54.076;12.092;2023-05-07T09:38:43;25.70;85.40
46458;DHT22;32155;54.076;12.092;2023-05-07T09:45:01;24.70;82.40
46458;DHT22;32155;54.076;12.092;2023-05-07T10:03:05;25.90;77.10
46458;DHT22;32155;54.076;12.092;2023-05-07T10:20:38;27.00;69.20
46458;DHT22;32155;54.076;12.092;2023-05-07T10:40:56;26.40;65.50
46458;DHT22;32155;54.076;12.092;2023-05-07T10:46:41;26.20;66.70
46458;DHT22;32155;54.076;12.092;2023-05-07T10:59:40;26.60;63.90
46458;DHT22;32155;54.076;12.092;2023-05-07T11:30:43;28.60;60.40
46458;DHT22;32155;54.076;12.092;2023-05-07T11:36:48;27.70;59.50
46458;DHT22;32155;54.076;12.092;2023-05-07T11:45:22;27.00;61.20
46458;DHT22;32155;54.076;12.092;2023-05-07T11:48:12;28.00;59.80
46458;DHT22;32155;54.076;12.092;2023-05-07T11:51:12;26.70;61.40
46458;DHT22;32155;54.076;12.092;2023-05-07T11:53:44;26.80;60.00
46458;DHT22;32155;54.076;12.092;2023-05-07T11:57:36;26.60;61.10
46458;DHT22;32155;54.076;12.092;2023-05-07T12:00:15;27.80;59.90
46458;DHT22;32155;54.076;12.092;2023-05-07T12:03:10;27.00;60.50
46458;DHT22;32155;54.076;12.092;2023-05-07T12:05:55;26.40;61.40
46458;DHT22;32155;54.076;12.092;2023-05-07T12:08:32;26.70;61.90
46458;DHT22;32155;54.076;12.092;2023-05-07T12:11:36;27.30;60.80
46458;DHT22;32155;54.076;12.092;2023-05-07T12:14:28;27.50;59.80
46458;DHT22;32155;54.076;12.092;2023-05-07T12:20:48;26.80;61.30
46458;DHT22;32155;54.076;12.092;2023-05-07T12:23:17;27.30;60.40
46458;DHT22;32155;54.076;12.092;2023-05-07T12:26:19;25.90;61.20
46458;DHT22;32155;54.076;12.092;2023-05-07T12:29:07;25.90;61.60
46458;DHT22;32155;54.076;12.092;2023-05-07T12:31:40;25.50;61.90
46458;DHT22;32155;54.076;12.092;2023-05-07T12:41:21;25.00;61.90
46458;DHT22;32155;54.076;12.092;2023-05-07T12:47:46;24.90;63.20
46458;DHT22;32155;54.076;12.092;2023-05-07T12:50:15;25.00;63.90
46458;DHT22;32155;54.076;12.092;2023-05-07T13:03:00;21.50;70.30
46458;DHT22;32155;54.076;12.092;2023-05-07T13:06:01;20.90;72.20
46458;DHT22;32155;54.076;12.092;2023-05-07T13:08:37;20.40;75.20
46458;DHT22;32155;54.076;12.092;2023-05-07T13:18:17;18.60;77.60
46458;DHT22;32155;54.076;12.092;2023-05-07T13:24:09;18.30;80.00
46458;DHT22;32155;54.076;12.092;2023-05-07T13:31:21;18.10;79.10
46458;DHT22;32155;54.076;12.092;2023-05-07T13:37:37;17.80;82.80
46458;DHT22;32155;54.076;12.092;2023-05-07T13:40:16;17.70;81.10
46458;DHT22;32155;54.076;12.092;2023-05-07T13:43:02;17.80;80.70
46458;DHT22;32155;54.076;12.092;2023-05-07T13:46:01;17.80;81.50
46458;DHT22;32155;54.076;12.092;2023-05-07T13:48:58;17.60;79.80
46458;DHT22;32155;54.076;12.092;2023-05-07T13:52:16;17.70;81.90
46458;DHT22;32155;54.076;12.092;2023-05-07T13:55:35;17.40;80.70
46458;DHT22;32155;54.076;12.092;2023-05-07T13:58:07;17.50;78.30
46458;DHT22;32155;54.076;12.092;2023-05-07T14:00:47;17.80;79.10
46458;DHT22;32155;54.076;12.092;2023-05-07T14:03:16;18.10;78.80
46458;DHT22;32155;54.076;12.092;2023-05-07T14:06:02;18.20;77.60
46458;DHT22;32155;54.076;12.092;2023-05-07T14:08:33;18.60;75.30
46458;DHT22;32155;54.076;12.092;2023-05-07T14:11:08;18.50;75.20
46458;DHT22;32155;54.076;12.092;2023-05-07T14:13:42;19.00;75.30
46458;DHT22;32155;54.076;12.092;2023-05-07T14:16:59;19.80;72.50
46458;DHT22;32155;54.076;12.092;2023-05-07T14:20:25;20.10;72.30
46458;DHT22;32155;54.076;12.092;2023-05-07T14:23:32;20.40;71.30
46458;DHT22;32155;54.076;12.092;2023-05-07T14:29:35;19.80;70.60
46458;DHT22;32155;54.076;12.092;2023-05-07T14:36:15;18.10;75.50
46458;DHT22;32155;54.076;12.092;2023-05-07T14:39:42;17.90;76.10
46458;DHT22;32155;54.076;12.092;2023-05-07T14:49:55;17.00;79.10
46458;DHT22;32155;54.076;12.092;2023-05-07T15:07:30;16.80;76.50
46458;DHT22;32155;54.076;12.092;2023-05-07T15:17:04;17.20;81.50
46458;DHT22;32155;54.076;12.092;2023-05-07T15:23:01;17.10;78.30
46458;DHT22;32155;54.076;12.092;2023-05-07T15:26:01;17.10;80.80
46458;DHT22;32155;54.076;12.092;2023-05-07T15:28:57;16.90;80.90
46458;DHT22;32155;54.076;12.092;2023-05-07T15:35:37;17.10;80.00
46458;DHT22;32155;54.076;12.092;2023-05-07T15:38:21;17.00;80.80
46458;DHT22;32155;54.076;12.092;2023-05-07T15:41:08;16.90;81.70
46458;DHT22;32155;54.076;12.092;2023-05-07T15:43:57;17.00;81.80
46458;DHT22;32155;54.076;12.092;2023-05-07T15:47:33;16.90;81.30
46458;DHT22;32155;54.076;12.092;2023-05-07T15:54:05;16.80;82.60
46458;DHT22;32155;54.076;12.092;2023-05-07T15:56:34;16.90;82.90
46458;DHT22;32155;54.076;12.092;2023-05-07T15:59:10;16.90;80.00
46458;DHT22;32155;54.076;12.092;2023-05-07T16:05:32;17.00;81.60
46458;DHT22;32155;54.076;12.092;2023-05-07T16:08:19;16.80;80.10
46458;DHT22;32155;54.076;12.092;2023-05-07T16:11:04;16.70;81.70
46458;DHT22;32155;54.076;12.092;2023-05-07T16:14:41;16.70;82.00
46458;DHT22;32155;54.076;12.092;2023-05-07T16:17:14;16.70;82.30
46458;DHT22;32155;54.076;12.092;2023-05-07T16:30:53;16.40;88.70
46458;DHT22;32155;54.076;12.092;2023-05-07T16:34:14;16.20;89.30
46458;DHT22;32155;54.076;12.092;2023-05-07T16:37:18;16.10;89.90
46458;DHT22;32155;54.076;12.092;2023-05-07T16:39:54;16.10;90.10
46458;DHT22;32155;54.076;12.092;2023-05-07T16:45:41;16.00;89.50
46458;DHT22;32155;54.076;12.092;2023-05-07T16:48:18;15.90;90.20
46458;DHT22;32155;54.076;12.092;2023-05-07T16:50:47;15.90;90.30
46458;DHT22;32155;54.076;12.092;2023-05-07T16:53:13;15.70;90.10
46458;DHT22;32155;54.076;12.092;2023-05-07T16:55:47;15.60;90.30
46458;DHT22;32155;54.076;12.092;2023-05-07T16:58:48;15.60;90.40
46458;DHT22;32155;54.076;12.092;2023-05-07T17:05:36;15.30;90.90
46458;DHT22;32155;54.076;12.092;2023-05-07T17:08:20;15.20;90.80
46458;DHT22;32155;54.076;12.092;2023-05-07T17:11:07;15.00;91.20
46458;DHT22;32155;54.076;12.092;2023-05-07T17:13:53;14.90;91.30
46458;DHT22;32155;54.076;12.092;2023-05-07T17:16:35;14.80;91.60
46458;DHT22;32155;54.076;12.092;2023-05-07T17:19:03;14.70;91.40
46458;DHT22;32155;54.076;12.092;2023-05-07T17:21:35;14.60;91.40
46458;DHT22;32155;54.076;12.092;2023-05-07T17:24:05;14.60;91.70
46458;DHT22;32155;54.076;12.092;2023-05-07T17:26:33;14.50;91.80
46458;DHT22;32155;54.076;12.092;2023-05-07T17:29:48;14.40;91.80
46458;DHT22;32155;54.076;12.092;2023-05-07T17:32:15;14.40;91.90
46458;DHT22;32155;54.076;12.092;2023-05-07T17:34:46;14.30;91.80
46458;DHT22;32155;54.076;12.092;2023-05-07T17:40:18;14.10;91.80
46458;DHT22;32155;54.076;12.092;2023-05-07T17:43:04;14.10;92.00
46458;DHT22;32155;54.076;12.092;2023-05-07T17:45:34;13.90;92.00
46458;DHT22;32155;54.076;12.092;2023-05-07T17:50:57;13.80;92.50
46458;DHT22;32155;54.076;12.092;2023-05-07T18:00:17;13.60;93.20
46458;DHT22;32155;54.076;12.092;2023-05-07T18:06:49;13.50;93.30
46458;DHT22;32155;54.076;12.092;2023-05-07T18:09:35;13.40;94.00
46458;DHT22;32155;54.076;12.092;2023-05-07T18:12:01;13.30;93.70
46458;DHT22;32155;54.076;12.092;2023-05-07T18:18:23;13.20;94.00
46458;DHT22;32155;54.076;12.092;2023-05-07T18:20:50;13.00;94.20
46458;DHT22;32155;54.076;12.092;2023-05-07T18:23:50;12.90;94.70
46458;DHT22;32155;54.076;12.092;2023-05-07T18:26:22;12.80;95.50
46458;DHT22;32155;54.076;12.092;2023-05-07T18:35:57;12.60;95.90
46458;DHT22;32155;54.076;12.092;2023-05-07T18:38:40;12.50;96.10
46458;DHT22;32155;54.076;12.092;2023-05-07T18:44:46;12.30;96.70
46458;DHT22;32155;54.076;12.092;2023-05-07T18:47:46;12.20;96.80
46458;DHT22;32155;54.076;12.092;2023-05-07T18:50:55;12.10;97.20
46458;DHT22;32155;54.076;12.092;2023-05-07T19:10:41;11.60;99.80
46458;DHT22;32155;54.076;12.092;2023-05-07T19:31:30;11.10;99.90
46458;DHT22;32155;54.076;12.092;2023-05-07T19:37:53;10.90;99.90
46458;DHT22;32155;54.076;12.092;2023-05-07T19:43:34;10.80;99.90
46458;DHT22;32155;54.076;12.092;2023-05-07T19:46:14;10.80;99.90
46458;DHT22;32155;54.076;12.092;2023-05-07T19:49:10;10.70;99.90
46458;DHT22;32155;54.076;12.092;2023-05-07T20:08:31;10.30;99.90
46458;DHT22;32155;54.076;12.092;2023-05-07T20:11:49;10.30;99.90
46458;DHT22;32155;54.076;12.092;2023-05-07T20:14:56;10.30;99.90
46458;DHT22;32155;54.076;12.092;2023-05-07T20:20:15;10.10;99.90
46458;DHT22;32155;54.076;12.092;2023-05-07T20:25:56;10.10;99.90
46458;DHT22;32155;54.076;12.092;2023-05-07T20:28:56;10.00;99.90
46458;DHT22;32155;54.076;12.092;2023-05-07T20:38:56;9.90;99.90
46458;DHT22;32155;54.076;12.092;2023-05-07T20:41:53;9.80;99.90
46458;DHT22;32155;54.076;12.092;2023-05-07T20:49:16;9.80;99.90
46458;DHT22;32155;54.076;12.092;2023-05-07T20:57:02;9.60;99.90
46458;DHT22;32155;54.076;12.092;2023-05-07T21:03:50;9.50;99.90
46458;DHT22;32155;54.076;12.092;2023-05-07T21:06:57;9.50;99.90
46458;DHT22;32155;54.076;12.092;2023-05-07T21:09:49;9.40;99.90
46458;DHT22;32155;54.076;12.092;2023-05-07T21:19:21;9.30;99.90
46458;DHT22;32155;54.076;12.092;2023-05-07T21:36:27;8.90;99.90
46458;DHT22;32155;54.076;12.092;2023-05-07T21:39:09;8.80;99.90
